Wetterdaten: Woche 22.08.11 - 28.08.11 (KW34)
Datum Zeit Temperatur Luftfeuchte Luftdruck Niederschlag Windrichtung Sonnenschein Solar Wind
22.08.2011 00:00 21,0 C 87 % 1015,4 hPa 0,0 l/m N 0,00 h 0 W/m 0,5 km/h (0 Bft)
22.08.2011 01:00 20,0 C 90 % 1015,3 hPa 0,0 l/m N 0,00 h 0 W/m 0,0 km/h (0 Bft)
22.08.2011 02:00 19,1 C 94 % 1015,2 hPa 0,0 l/m N 0,00 h 0 W/m 0,1 km/h (0 Bft)
22.08.2011 03:00 18,5 C 96 % 1015,2 hPa 0,0 l/m N 0,00 h 0 W/m 0,0 km/h (0 Bft)
22.08.2011 04:00 17,9 C 96 % 1015,4 hPa 0,0 l/m N 0,00 h 0 W/m 0,0 km/h (0 Bft)
22.08.2011 05:00 17,4 C 97 % 1015,5 hPa 0,0 l/m N 0,00 h 0 W/m 0,0 km/h (0 Bft)
22.08.2011 06:00 17,1 C 97 % 1015,4 hPa 0,0 l/m N 0,00 h 12 W/m 0,0 km/h (0 Bft)
22.08.2011 07:00 17,6 C 98 % 1015,5 hPa 0,0 l/m N 0,08 h 77 W/m 0,0 km/h (0 Bft)
22.08.2011 08:00 19,6 C 91 % 1015,6 hPa 0,0 l/m N 0,50 h 183 W/m 0,0 km/h (0 Bft)
22.08.2011 09:00 23,0 C 76 % 1015,5 hPa 0,0 l/m N 1,00 h 388 W/m 0,0 km/h (0 Bft)
22.08.2011 10:00 25,3 C 67 % 1015,2 hPa 0,0 l/m N 1,00 h 517 W/m 0,5 km/h (0 Bft)
22.08.2011 11:00 26,8 C 62 % 1014,9 hPa 0,0 l/m N 1,00 h 659 W/m 0,3 km/h (0 Bft)
22.08.2011 12:00 29,1 C 54 % 1014,6 hPa 0,0 l/m N 1,00 h 739 W/m 1,1 km/h (0 Bft)
22.08.2011 13:00 30,5 C 49 % 1014,1 hPa 0,0 l/m N 1,00 h 770 W/m 0,8 km/h (0 Bft)
22.08.2011 14:00 31,6 C 44 % 1013,6 hPa 0,0 l/m O 1,00 h 753 W/m 3,1 km/h (1 Bft)
22.08.2011 15:00 32,2 C 42 % 1013,0 hPa 0,0 l/m O-NO 1,00 h 694 W/m 4,8 km/h (1 Bft)
22.08.2011 16:00 32,3 C 43 % 1012,7 hPa 0,0 l/m NO 1,00 h 580 W/m 6,2 km/h (2 Bft)
22.08.2011 17:00 32,2 C 45 % 1012,5 hPa 0,0 l/m O-SO 1,00 h 434 W/m 9,9 km/h (2 Bft)
22.08.2011 18:00 31,3 C 48 % 1012,3 hPa 0,0 l/m O 1,00 h 261 W/m 9,3 km/h (2 Bft)
22.08.2011 19:00 29,4 C 54 % 1012,5 hPa 0,0 l/m O 0,50 h 78 W/m 2,7 km/h (1 Bft)
22.08.2011 20:00 25,1 C 73 % 1012,6 hPa 0,0 l/m N 0,08 h 11 W/m 0,0 km/h (0 Bft)
22.08.2011 21:00 23,1 C 78 % 1012,7 hPa 0,0 l/m N 0,00 h 0 W/m 1,7 km/h (1 Bft)
22.08.2011 22:00 22,3 C 80 % 1012,7 hPa 0,0 l/m N 0,00 h 0 W/m 1,9 km/h (1 Bft)
22.08.2011 23:00 22,1 C 82 % 1012,8 hPa 0,0 l/m N 0,00 h 0 W/m 3,3 km/h (1 Bft)
23.08.2011 00:00 21,0 C 87 % 1012,5 hPa 0,0 l/m N 0,00 h 0 W/m 0,5 km/h (0 Bft)
23.08.2011 01:00 20,0 C 91 % 1012,2 hPa 0,0 l/m N 0,00 h 0 W/m 0,8 km/h (0 Bft)
23.08.2011 02:00 19,4 C 93 % 1012,0 hPa 0,0 l/m N 0,00 h 0 W/m 0,4 km/h (0 Bft)
23.08.2011 03:00 18,6 C 95 % 1012,2 hPa 0,0 l/m N 0,00 h 0 W/m 0,1 km/h (0 Bft)
23.08.2011 04:00 18,0 C 96 % 1012,3 hPa 0,0 l/m N 0,00 h 0 W/m 0,0 km/h (0 Bft)
23.08.2011 05:00 17,2 C 97 % 1012,4 hPa 0,0 l/m N 0,00 h 0 W/m 0,7 km/h (0 Bft)
23.08.2011 06:00 16,8 C 98 % 1012,7 hPa 0,0 l/m N 0,00 h 12 W/m 0,3 km/h (0 Bft)
23.08.2011 07:00 17,4 C 97 % 1013,1 hPa 0,0 l/m N 0,08 h 79 W/m 0,0 km/h (0 Bft)
23.08.2011 08:00 19,8 C 91 % 1013,3 hPa 0,0 l/m N 1,00 h 226 W/m 0,5 km/h (0 Bft)
23.08.2011 09:00 23,1 C 75 % 1013,1 hPa 0,0 l/m S-SW 1,00 h 401 W/m 6,8 km/h (2 Bft)
23.08.2011 10:00 25,8 C 65 % 1013,2 hPa 0,0 l/m S-SO 0,92 h 535 W/m 7,6 km/h (2 Bft)
23.08.2011 11:00 28,1 C 61 % 1013,1 hPa 0,0 l/m S 1,00 h 672 W/m 6,7 km/h (2 Bft)
23.08.2011 12:00 30,1 C 52 % 1012,7 hPa 0,0 l/m S-SW 1,00 h 749 W/m 9,5 km/h (2 Bft)
23.08.2011 13:00 31,5 C 43 % 1012,3 hPa 0,0 l/m S-SO 1,00 h 782 W/m 8,2 km/h (2 Bft)
23.08.2011 14:00 32,1 C 32 % 1011,9 hPa 0,0 l/m SW 1,00 h 763 W/m 4,9 km/h (1 Bft)
23.08.2011 15:00 32,8 C 30 % 1011,5 hPa 0,0 l/m O-NO 1,00 h 691 W/m 7,4 km/h (2 Bft)
23.08.2011 16:00 32,9 C 29 % 1011,2 hPa 0,0 l/m O-SO 1,00 h 578 W/m 9,1 km/h (2 Bft)
23.08.2011 17:00 32,5 C 29 % 1010,8 hPa 0,0 l/m N-NO 1,00 h 429 W/m 8,0 km/h (2 Bft)
23.08.2011 18:00 31,2 C 40 % 1010,5 hPa 0,0 l/m O-SO 1,00 h 234 W/m 5,5 km/h (1 Bft)
23.08.2011 19:00 26,5 C 62 % 1010,6 hPa 0,0 l/m N 0,33 h 58 W/m 1,5 km/h (1 Bft)
23.08.2011 20:00 23,6 C 67 % 1011,0 hPa 0,0 l/m N 0,08 h 8 W/m 0,3 km/h (0 Bft)
23.08.2011 21:00 22,5 C 68 % 1011,6 hPa 0,0 l/m N-NO 0,00 h 0 W/m 2,4 km/h (1 Bft)
23.08.2011 22:00 22,4 C 67 % 1012,0 hPa 0,0 l/m N 0,00 h 0 W/m 0,7 km/h (0 Bft)
23.08.2011 23:00 22,3 C 71 % 1012,8 hPa 0,0 l/m SW 0,00 h 0 W/m 12,1 km/h (2 Bft)
24.08.2011 00:00 21,6 C 72 % 1012,8 hPa 0,0 l/m NW 0,00 h 0 W/m 8,8 km/h (2 Bft)
24.08.2011 01:00 20,0 C 78 % 1013,1 hPa 0,0 l/m N 0,00 h 0 W/m 1,2 km/h (1 Bft)
24.08.2011 02:00 18,5 C 85 % 1013,0 hPa 0,0 l/m N 0,00 h 0 W/m 1,2 km/h (1 Bft)
24.08.2011 03:00 17,8 C 87 % 1013,1 hPa 0,0 l/m N 0,00 h 0 W/m 0,5 km/h (0 Bft)
24.08.2011 04:00 17,0 C 91 % 1013,1 hPa 0,0 l/m N 0,00 h 0 W/m 0,1 km/h (0 Bft)
24.08.2011 05:00 16,5 C 93 % 1013,2 hPa 0,0 l/m N 0,00 h 0 W/m 0,0 km/h (0 Bft)
24.08.2011 06:00 16,2 C 94 % 1013,3 hPa 0,0 l/m N 0,00 h 11 W/m 0,3 km/h (0 Bft)
24.08.2011 07:00 16,9 C 93 % 1013,5 hPa 0,0 l/m N 0,00 h 71 W/m 0,1 km/h (0 Bft)
24.08.2011 08:00 19,0 C 88 % 1013,6 hPa 0,0 l/m N 0,92 h 218 W/m 0,0 km/h (0 Bft)
24.08.2011 09:00 22,4 C 77 % 1013,3 hPa 0,0 l/m N 1,00 h 390 W/m 1,3 km/h (1 Bft)
24.08.2011 10:00 24,8 C 69 % 1012,9 hPa 0,0 l/m O-SO 1,00 h 547 W/m 3,6 km/h (1 Bft)
24.08.2011 11:00 26,4 C 60 % 1012,4 hPa 0,0 l/m O-SO 1,00 h 673 W/m 4,3 km/h (1 Bft)
24.08.2011 12:00 28,1 C 54 % 1012,1 hPa 0,0 l/m N-NO 1,00 h 744 W/m 5,5 km/h (1 Bft)
24.08.2011 13:00 29,4 C 48 % 1011,5 hPa 0,0 l/m N-NO 1,00 h 775 W/m 7,1 km/h (2 Bft)
24.08.2011 14:00 30,4 C 42 % 1011,3 hPa 0,0 l/m N-NO 1,00 h 751 W/m 7,5 km/h (2 Bft)
24.08.2011 15:00 30,4 C 37 % 1010,9 hPa 0,0 l/m W-NW 0,92 h 639 W/m 6,3 km/h (2 Bft)
24.08.2011 16:00 30,1 C 41 % 1010,6 hPa 0,0 l/m S-SO 0,92 h 478 W/m 3,7 km/h (1 Bft)
24.08.2011 17:00 29,9 C 42 % 1010,4 hPa 0,0 l/m S 1,00 h 403 W/m 4,3 km/h (1 Bft)
24.08.2011 18:00 27,8 C 54 % 1010,5 hPa 0,0 l/m W-NW 0,33 h 142 W/m 1,6 km/h (1 Bft)
24.08.2011 19:00 24,7 C 56 % 1011,3 hPa 0,0 l/m N-NW 0,00 h 30 W/m 18,1 km/h (3 Bft)
24.08.2011 20:00 23,0 C 64 % 1012,0 hPa 0,0 l/m N-NW 0,00 h 5 W/m 16,5 km/h (3 Bft)
24.08.2011 21:00 22,3 C 72 % 1013,0 hPa 0,6 l/m N-NW 0,00 h 0 W/m 9,8 km/h (2 Bft)
24.08.2011 22:00 20,4 C 89 % 1014,0 hPa 0,4 l/m W-NW 0,00 h 0 W/m 11,9 km/h (2 Bft)
24.08.2011 23:00 18,4 C 91 % 1015,5 hPa 6,6 l/m W-SW 0,00 h 0 W/m 23,2 km/h (4 Bft)
25.08.2011 00:00 17,3 C 96 % 1014,9 hPa 0,6 l/m SW 0,00 h 0 W/m 12,3 km/h (3 Bft)
25.08.2011 01:00 17,0 C 97 % 1013,3 hPa 0,2 l/m S-SO 0,00 h 0 W/m 9,8 km/h (2 Bft)
25.08.2011 02:00 16,6 C 97 % 1013,4 hPa 0,0 l/m N 0,00 h 0 W/m 2,1 km/h (1 Bft)
25.08.2011 03:00 16,1 C 97 % 1013,5 hPa 0,0 l/m N-NO 0,00 h 0 W/m 4,4 km/h (1 Bft)
25.08.2011 04:00 15,9 C 98 % 1013,6 hPa 0,0 l/m N 0,00 h 0 W/m 1,5 km/h (1 Bft)
25.08.2011 05:00 15,6 C 98 % 1013,1 hPa 0,0 l/m N 0,00 h 0 W/m 1,5 km/h (1 Bft)
25.08.2011 06:00 15,5 C 99 % 1012,7 hPa 0,0 l/m N 0,17 h 15 W/m 1,6 km/h (1 Bft)
25.08.2011 07:00 15,9 C 99 % 1012,3 hPa 0,0 l/m N-NW 0,00 h 52 W/m 5,6 km/h (1 Bft)
25.08.2011 08:00 16,8 C 99 % 1012,1 hPa 0,0 l/m N-NW 0,25 h 138 W/m 7,2 km/h (2 Bft)
25.08.2011 09:00 18,7 C 93 % 1011,6 hPa 0,0 l/m N-NO 0,92 h 383 W/m 6,5 km/h (2 Bft)
25.08.2011 10:00 20,2 C 88 % 1011,4 hPa 0,0 l/m N-NW 0,92 h 506 W/m 6,7 km/h (2 Bft)
25.08.2011 11:00 22,1 C 82 % 1011,4 hPa 0,0 l/m N 1,00 h 658 W/m 7,1 km/h (2 Bft)
25.08.2011 12:00 23,9 C 77 % 1011,1 hPa 0,0 l/m NW 1,00 h 738 W/m 7,4 km/h (2 Bft)
25.08.2011 13:00 25,5 C 71 % 1010,6 hPa 0,0 l/m O-NO 1,00 h 771 W/m 9,4 km/h (2 Bft)
25.08.2011 14:00 27,0 C 66 % 1010,4 hPa 0,0 l/m N 1,00 h 748 W/m 9,5 km/h (2 Bft)
25.08.2011 15:00 27,8 C 62 % 1010,2 hPa 0,0 l/m N-NO 1,00 h 677 W/m 8,2 km/h (2 Bft)
25.08.2011 16:00 28,6 C 58 % 1009,7 hPa 0,0 l/m O 1,00 h 555 W/m 9,2 km/h (2 Bft)
25.08.2011 17:00 28,9 C 57 % 1009,3 hPa 0,0 l/m O-SO 1,00 h 415 W/m 9,4 km/h (2 Bft)
25.08.2011 18:00 28,7 C 56 % 1009,3 hPa 0,0 l/m O 1,00 h 237 W/m 9,1 km/h (2 Bft)
25.08.2011 19:00 27,3 C 63 % 1009,2 hPa 0,0 l/m NO 0,25 h 62 W/m 7,6 km/h (2 Bft)
25.08.2011 20:00 24,6 C 76 % 1009,4 hPa 0,0 l/m O-NO 0,08 h 8 W/m 3,1 km/h (1 Bft)
25.08.2011 21:00 22,2 C 85 % 1009,8 hPa 0,0 l/m N 0,00 h 0 W/m 1,2 km/h (1 Bft)
25.08.2011 22:00 21,5 C 87 % 1009,8 hPa 0,0 l/m N 0,00 h 0 W/m 0,8 km/h (0 Bft)
25.08.2011 23:00 20,4 C 91 % 1009,5 hPa 0,0 l/m N 0,00 h 0 W/m 0,3 km/h (0 Bft)
26.08.2011 00:00 19,7 C 94 % 1009,3 hPa 0,0 l/m N 0,00 h 0 W/m 0,9 km/h (0 Bft)
26.08.2011 01:00 18,9 C 96 % 1009,0 hPa 0,0 l/m N 0,00 h 0 W/m 0,0 km/h (0 Bft)
26.08.2011 02:00 18,6 C 97 % 1008,5 hPa 0,0 l/m N 0,00 h 0 W/m 0,5 km/h (0 Bft)
26.08.2011 03:00 18,0 C 97 % 1008,0 hPa 0,0 l/m N 0,00 h 0 W/m 0,3 km/h (0 Bft)
26.08.2011 04:00 17,7 C 98 % 1007,7 hPa 0,0 l/m N 0,00 h 0 W/m 0,8 km/h (0 Bft)
26.08.2011 05:00 17,2 C 98 % 1007,1 hPa 0,0 l/m N 0,00 h 0 W/m 0,1 km/h (0 Bft)
26.08.2011 06:00 16,4 C 98 % 1006,8 hPa 0,0 l/m N 0,00 h 10 W/m 1,1 km/h (0 Bft)
26.08.2011 07:00 16,5 C 98 % 1006,6 hPa 0,0 l/m N 0,17 h 74 W/m 1,5 km/h (1 Bft)
26.08.2011 08:00 18,8 C 95 % 1006,3 hPa 0,0 l/m N 1,00 h 229 W/m 2,1 km/h (1 Bft)
26.08.2011 09:00 22,4 C 79 % 1005,6 hPa 0,0 l/m N 1,00 h 402 W/m 1,9 km/h (1 Bft)
26.08.2011 10:00 25,7 C 66 % 1005,1 hPa 0,0 l/m O-NO 1,00 h 558 W/m 3,7 km/h (1 Bft)
26.08.2011 11:00 28,1 C 51 % 1004,9 hPa 0,0 l/m S-SW 1,00 h 694 W/m 15,0 km/h (3 Bft)
26.08.2011 12:00 29,9 C 42 % 1004,4 hPa 0,0 l/m SW 1,00 h 777 W/m 18,1 km/h (3 Bft)
26.08.2011 13:00 31,3 C 35 % 1003,6 hPa 0,0 l/m SW 1,00 h 804 W/m 18,9 km/h (3 Bft)
26.08.2011 14:00 32,0 C 33 % 1003,0 hPa 0,0 l/m S-SW 1,00 h 771 W/m 20,6 km/h (4 Bft)
26.08.2011 15:00 32,0 C 33 % 1002,3 hPa 0,0 l/m SW 1,00 h 688 W/m 27,8 km/h (4 Bft)
26.08.2011 16:00 31,6 C 34 % 1001,6 hPa 0,0 l/m SW 1,00 h 572 W/m 29,4 km/h (5 Bft)
26.08.2011 17:00 30,5 C 36 % 1001,1 hPa 0,0 l/m SW 0,92 h 397 W/m 25,1 km/h (4 Bft)
26.08.2011 18:00 29,4 C 38 % 1000,9 hPa 0,0 l/m S-SW 1,00 h 248 W/m 19,0 km/h (3 Bft)
26.08.2011 19:00 27,1 C 40 % 1000,9 hPa 0,0 l/m SW 0,17 h 43 W/m 17,8 km/h (3 Bft)
26.08.2011 20:00 24,9 C 44 % 1001,4 hPa 0,0 l/m SW 0,00 h 6 W/m 14,2 km/h (3 Bft)
26.08.2011 21:00 23,4 C 57 % 1003,1 hPa 0,0 l/m W-NW 0,00 h 0 W/m 22,3 km/h (4 Bft)
26.08.2011 22:00 19,9 C 75 % 1005,7 hPa 0,0 l/m W-NW 0,00 h 0 W/m 22,4 km/h (4 Bft)
26.08.2011 23:00 17,0 C 75 % 1007,4 hPa 0,0 l/m W-NW 0,00 h 0 W/m 21,6 km/h (4 Bft)
27.08.2011 00:00 15,1 C 83 % 1008,6 hPa 0,0 l/m W 0,00 h 0 W/m 12,2 km/h (2 Bft)
27.08.2011 01:00 14,1 C 87 % 1009,7 hPa 0,0 l/m W-SW 0,00 h 0 W/m 14,9 km/h (3 Bft)
27.08.2011 02:00 13,3 C 87 % 1009,8 hPa 0,0 l/m W-SW 0,00 h 0 W/m 17,6 km/h (3 Bft)
27.08.2011 03:00 12,9 C 83 % 1010,2 hPa 0,0 l/m W 0,00 h 0 W/m 19,2 km/h (3 Bft)
27.08.2011 04:00 12,4 C 81 % 1010,1 hPa 0,0 l/m W-SW 0,00 h 0 W/m 15,4 km/h (3 Bft)
27.08.2011 05:00 11,6 C 86 % 1010,3 hPa 0,2 l/m W-SW 0,00 h 0 W/m 8,6 km/h (2 Bft)
27.08.2011 06:00 11,4 C 90 % 1011,1 hPa 1,2 l/m W-SW 0,00 h 5 W/m 10,7 km/h (2 Bft)
27.08.2011 07:00 10,5 C 94 % 1012,2 hPa 3,4 l/m W-SW 0,00 h 17 W/m 17,6 km/h (3 Bft)
27.08.2011 08:00 9,6 C 95 % 1012,9 hPa 2,6 l/m SW 0,00 h 15 W/m 21,2 km/h (4 Bft)
27.08.2011 09:00 9,0 C 96 % 1013,4 hPa 1,4 l/m S-SW 0,00 h 16 W/m 17,2 km/h (3 Bft)
27.08.2011 10:00 9,1 C 96 % 1013,9 hPa 0,0 l/m S 0,00 h 31 W/m 9,8 km/h (2 Bft)
27.08.2011 11:00 9,2 C 96 % 1014,5 hPa 0,0 l/m S-SW 0,00 h 29 W/m 9,9 km/h (2 Bft)
27.08.2011 12:00 9,9 C 96 % 1014,9 hPa 0,0 l/m S-SW 0,00 h 55 W/m 10,2 km/h (2 Bft)
27.08.2011 13:00 10,6 C 94 % 1015,7 hPa 0,0 l/m S-SO 0,00 h 109 W/m 14,0 km/h (3 Bft)
27.08.2011 14:00 11,4 C 91 % 1015,9 hPa 0,0 l/m S-SW 0,08 h 309 W/m 21,3 km/h (4 Bft)
27.08.2011 15:00 12,2 C 88 % 1016,4 hPa 0,0 l/m S-SW 0,17 h 271 W/m 23,3 km/h (4 Bft)
27.08.2011 16:00 13,4 C 85 % 1016,6 hPa 0,0 l/m S-SW 0,58 h 401 W/m 23,2 km/h (4 Bft)
27.08.2011 17:00 13,7 C 86 % 1017,1 hPa 0,0 l/m SW 0,42 h 277 W/m 18,0 km/h (3 Bft)
27.08.2011 18:00 14,3 C 81 % 1017,5 hPa 0,0 l/m SW 0,42 h 146 W/m 19,3 km/h (3 Bft)
27.08.2011 19:00 13,6 C 86 % 1018,1 hPa 0,0 l/m SW 0,08 h 35 W/m 14,9 km/h (3 Bft)
27.08.2011 20:00 12,5 C 91 % 1018,7 hPa 0,0 l/m SW 0,00 h 8 W/m 10,2 km/h (2 Bft)
27.08.2011 21:00 11,7 C 91 % 1019,6 hPa 0,0 l/m W-SW 0,00 h 0 W/m 12,4 km/h (3 Bft)
27.08.2011 22:00 11,9 C 91 % 1019,9 hPa 0,0 l/m W-SW 0,00 h 0 W/m 11,7 km/h (2 Bft)
27.08.2011 23:00 12,2 C 89 % 1020,4 hPa 0,0 l/m SW 0,00 h 0 W/m 11,2 km/h (2 Bft)
28.08.2011 00:00 12,3 C 88 % 1020,6 hPa 0,0 l/m W-SW 0,00 h 0 W/m 11,7 km/h (2 Bft)
28.08.2011 01:00 11,4 C 90 % 1020,8 hPa 0,0 l/m W 0,00 h 0 W/m 7,0 km/h (2 Bft)
28.08.2011 02:00 9,9 C 95 % 1020,8 hPa 0,0 l/m W 0,00 h 0 W/m 2,7 km/h (1 Bft)
28.08.2011 03:00 9,4 C 96 % 1020,9 hPa 0,0 l/m N 0,00 h 0 W/m 2,1 km/h (1 Bft)
28.08.2011 04:00 8,9 C 97 % 1021,1 hPa 0,0 l/m N 0,00 h 0 W/m 1,9 km/h (1 Bft)
28.08.2011 05:00 8,6 C 97 % 1021,1 hPa 0,0 l/m N 0,00 h 0 W/m 1,3 km/h (1 Bft)
28.08.2011 06:00 8,3 C 98 % 1021,0 hPa 0,0 l/m W 0,00 h 8 W/m 3,6 km/h (1 Bft)
28.08.2011 07:00 8,7 C 99 % 1021,1 hPa 0,0 l/m W-SW 0,08 h 48 W/m 3,5 km/h (1 Bft)
28.08.2011 08:00 10,2 C 98 % 1021,3 hPa 0,0 l/m S-SO 1,00 h 237 W/m 6,4 km/h (2 Bft)
28.08.2011 09:00 12,9 C 87 % 1021,1 hPa 0,0 l/m S-SO 1,00 h 410 W/m 8,7 km/h (2 Bft)
28.08.2011 10:00 15,2 C 76 % 1020,8 hPa 0,0 l/m SW 1,00 h 572 W/m 11,6 km/h (2 Bft)
28.08.2011 11:00 16,6 C 68 % 1020,5 hPa 0,0 l/m SW 1,00 h 712 W/m 11,4 km/h (2 Bft)
28.08.2011 12:00 18,3 C 60 % 1019,8 hPa 0,0 l/m S-SW 1,00 h 808 W/m 11,2 km/h (2 Bft)
28.08.2011 13:00 19,4 C 52 % 1019,0 hPa 0,0 l/m SO 1,00 h 837 W/m 10,2 km/h (2 Bft)
28.08.2011 14:00 20,3 C 45 % 1018,2 hPa 0,0 l/m SO 1,00 h 798 W/m 10,9 km/h (2 Bft)
28.08.2011 15:00 20,5 C 43 % 1017,6 hPa 0,0 l/m SW 1,00 h 723 W/m 11,8 km/h (2 Bft)
28.08.2011 16:00 20,8 C 41 % 1017,1 hPa 0,0 l/m S-SW 1,00 h 605 W/m 9,5 km/h (2 Bft)
28.08.2011 17:00 20,5 C 45 % 1016,6 hPa 0,0 l/m SW 1,00 h 458 W/m 9,1 km/h (2 Bft)
28.08.2011 18:00 19,8 C 48 % 1016,1 hPa 0,0 l/m W-SW 1,00 h 277 W/m 5,1 km/h (1 Bft)
28.08.2011 19:00 17,0 C 66 % 1015,8 hPa 0,0 l/m N 0,17 h 39 W/m 1,6 km/h (1 Bft)
28.08.2011 20:00 14,6 C 71 % 1016,1 hPa 0,0 l/m W-SW 0,00 h 6 W/m 3,6 km/h (1 Bft)
28.08.2011 21:00 12,7 C 82 % 1016,5 hPa 0,0 l/m N 0,00 h 0 W/m 0,0 km/h (0 Bft)
28.08.2011 22:00 11,5 C 87 % 1016,7 hPa 0,0 l/m N 0,00 h 0 W/m 0,0 km/h (0 Bft)
28.08.2011 23:00 10,6 C 90 % 1016,5 hPa 0,0 l/m N 0,00 h 0 W/m 0,0 km/h (0 Bft)
Min-Datum _ 28.08.11 23.08.11 26.08.11 - - - - 22.08.11
_ Min-Zeit 06:35 14:50 17:55 - - - - 00:00
Minimum _ 8,2 C 27 % 1000,8 hPa - - - - 0,0 km/h (0 Bft)
Max-Datum _ 23.08.11 25.08.11 28.08.11 24.08.11 - 22.08.11 28.08.11 24.08.11
_ Max-Zeit 15:40 06:25 07:50 23:25 - 07:55 12:50 23:25
Maximum _ 33,2 C 99 % 1021,3 hPa 6,6 l/m - 0,08 h 867 W/m 40,2 km/h
W-SW (6 Bft)
Durchschnitt _ 20,4 C 75 % 1012,7 hPa #17,2 l/m SW #67:30 h 369 W/m 7,2 km/h (2 Bft)